sensor_id;sensor_type;location;lat;lon;timestamp;temperature;humidity
14103;DHT22;7129;48.832;12.472;2022-07-25T00:11:59;20.10;97.90
14103;DHT22;7129;48.832;12.472;2022-07-25T00:17:03;20.00;98.20
14103;DHT22;7129;48.832;12.472;2022-07-25T00:23:52;20.10;98.60
14103;DHT22;7129;48.832;12.472;2022-07-25T00:28:17;20.10;98.20
14103;DHT22;7129;48.832;12.472;2022-07-25T00:33:19;20.00;98.00
14103;DHT22;7129;48.832;12.472;2022-07-25T00:38:21;19.90;98.20
14103;DHT22;7129;48.832;12.472;2022-07-25T00:43:24;19.90;98.40
14103;DHT22;7129;48.832;12.472;2022-07-25T00:48:26;19.90;98.60
14103;DHT22;7129;48.832;12.472;2022-07-25T00:53:29;19.90;98.80
14103;DHT22;7129;48.832;12.472;2022-07-25T01:16:33;19.70;99.20
14103;DHT22;7129;48.832;12.472;2022-07-25T01:21:38;19.60;99.90
14103;DHT22;7129;48.832;12.472;2022-07-25T01:26:41;19.50;99.90
14103;DHT22;7129;48.832;12.472;2022-07-25T01:31:42;19.40;99.90
14103;DHT22;7129;48.832;12.472;2022-07-25T01:36:46;19.30;99.90
14103;DHT22;7129;48.832;12.472;2022-07-25T01:41:48;19.30;99.90
14103;DHT22;7129;48.832;12.472;2022-07-25T01:46:50;19.40;99.90
14103;DHT22;7129;48.832;12.472;2022-07-25T01:51:53;19.60;99.90
14103;DHT22;7129;48.832;12.472;2022-07-25T01:56:55;19.90;99.90
14103;DHT22;7129;48.832;12.472;2022-07-25T02:01:57;20.00;99.90
14103;DHT22;7129;48.832;12.472;2022-07-25T02:07:01;20.10;99.90
14103;DHT22;7129;48.832;12.472;2022-07-25T02:12:03;20.10;99.90
14103;DHT22;7129;48.832;12.472;2022-07-25T02:17:07;20.20;99.90
14103;DHT22;7129;48.832;12.472;2022-07-25T02:22:12;20.20;99.90
14103;DHT22;7129;48.832;12.472;2022-07-25T02:27:14;20.20;99.90
14103;DHT22;7129;48.832;12.472;2022-07-25T02:32:16;20.20;99.90
14103;DHT22;7129;48.832;12.472;2022-07-25T02:37:20;20.30;99.90
14103;DHT22;7129;48.832;12.472;2022-07-25T02:42:22;20.40;99.90
14103;DHT22;7129;48.832;12.472;2022-07-25T02:47:24;20.40;99.90
14103;DHT22;7129;48.832;12.472;2022-07-25T02:52:27;20.40;99.90
14103;DHT22;7129;48.832;12.472;2022-07-25T02:57:29;20.40;99.90
14103;DHT22;7129;48.832;12.472;2022-07-25T03:02:31;20.40;99.90
14103;DHT22;7129;48.832;12.472;2022-07-25T03:07:34;20.10;99.90
14103;DHT22;7129;48.832;12.472;2022-07-25T03:12:37;19.90;99.90
14103;DHT22;7129;48.832;12.472;2022-07-25T03:17:42;19.60;99.90
14103;DHT22;7129;48.832;12.472;2022-07-25T03:22:45;19.40;99.90
14103;DHT22;7129;48.832;12.472;2022-07-25T03:27:50;19.30;99.90
14103;DHT22;7129;48.832;12.472;2022-07-25T03:44:52;19.00;99.90
14103;DHT22;7129;48.832;12.472;2022-07-25T03:49:54;18.80;99.90
14103;DHT22;7129;48.832;12.472;2022-07-25T03:54:56;18.70;99.90
14103;DHT22;7129;48.832;12.472;2022-07-25T03:59:59;18.70;99.90
14103;DHT22;7129;48.832;12.472;2022-07-25T04:05:01;18.60;99.90
14103;DHT22;7129;48.832;12.472;2022-07-25T04:10:04;18.50;99.90
14103;DHT22;7129;48.832;12.472;2022-07-25T04:15:08;18.50;99.90
14103;DHT22;7129;48.832;12.472;2022-07-25T04:20:11;18.50;99.90
14103;DHT22;7129;48.832;12.472;2022-07-25T04:25:13;18.50;99.90
14103;DHT22;7129;48.832;12.472;2022-07-25T04:30:16;18.40;99.90
14103;DHT22;7129;48.832;12.472;2022-07-25T04:35:19;18.50;99.90
14103;DHT22;7129;48.832;12.472;2022-07-25T04:40:25;18.60;99.90
14103;DHT22;7129;48.832;12.472;2022-07-25T04:45:30;18.70;99.90
14103;DHT22;7129;48.832;12.472;2022-07-25T04:50:33;18.80;99.90
14103;DHT22;7129;48.832;12.472;2022-07-25T04:55:35;19.00;99.90
14103;DHT22;7129;48.832;12.472;2022-07-25T05:00:40;19.10;99.90
14103;DHT22;7129;48.832;12.472;2022-07-25T05:05:42;19.20;99.90
14103;DHT22;7129;48.832;12.472;2022-07-25T05:10:44;19.30;99.90
14103;DHT22;7129;48.832;12.472;2022-07-25T05:15:47;19.50;99.90
14103;DHT22;7129;48.832;12.472;2022-07-25T05:20:55;19.70;99.90
14103;DHT22;7129;48.832;12.472;2022-07-25T05:26:05;19.80;99.90
14103;DHT22;7129;48.832;12.472;2022-07-25T05:31:16;20.00;99.90
14103;DHT22;7129;48.832;12.472;2022-07-25T05:36:23;20.20;99.90
14103;DHT22;7129;48.832;12.472;2022-07-25T05:41:25;20.30;99.90
14103;DHT22;7129;48.832;12.472;2022-07-25T05:46:34;20.50;99.90
14103;DHT22;7129;48.832;12.472;2022-07-25T05:51:36;20.80;99.90
14103;DHT22;7129;48.832;12.472;2022-07-25T05:56:38;21.00;99.90
14103;DHT22;7129;48.832;12.472;2022-07-25T06:01:42;21.20;99.90
14103;DHT22;7129;48.832;12.472;2022-07-25T06:06:43;21.50;99.90
14103;DHT22;7129;48.832;12.472;2022-07-25T06:11:50;21.80;99.90
14103;DHT22;7129;48.832;12.472;2022-07-25T06:16:53;22.10;99.90
14103;DHT22;7129;48.832;12.472;2022-07-25T06:21:55;22.40;99.90
14103;DHT22;7129;48.832;12.472;2022-07-25T06:26:57;22.70;99.90
14103;DHT22;7129;48.832;12.472;2022-07-25T06:32:00;23.00;99.90
14103;DHT22;7129;48.832;12.472;2022-07-25T06:37:03;23.40;99.90
14103;DHT22;7129;48.832;12.472;2022-07-25T06:42:11;23.50;97.00
14103;DHT22;7129;48.832;12.472;2022-07-25T06:47:15;23.70;96.30
14103;DHT22;7129;48.832;12.472;2022-07-25T06:52:17;23.90;94.50
14103;DHT22;7129;48.832;12.472;2022-07-25T06:57:19;24.00;93.90
14103;DHT22;7129;48.832;12.472;2022-07-25T07:02:22;24.10;93.90
14103;DHT22;7129;48.832;12.472;2022-07-25T07:07:24;24.20;93.30
14103;DHT22;7129;48.832;12.472;2022-07-25T07:12:26;24.30;93.40
14103;DHT22;7129;48.832;12.472;2022-07-25T07:17:29;24.50;93.90
14103;DHT22;7129;48.832;12.472;2022-07-25T07:22:31;24.80;94.00
14103;DHT22;7129;48.832;12.472;2022-07-25T07:27:33;25.00;93.60
14103;DHT22;7129;48.832;12.472;2022-07-25T07:32:36;25.10;93.60
14103;DHT22;7129;48.832;12.472;2022-07-25T07:37:38;25.20;93.60
14103;DHT22;7129;48.832;12.472;2022-07-25T07:42:41;25.30;93.70
14103;DHT22;7129;48.832;12.472;2022-07-25T07:47:45;25.50;94.00
14103;DHT22;7129;48.832;12.472;2022-07-25T07:52:49;25.70;93.20
14103;DHT22;7129;48.832;12.472;2022-07-25T07:57:52;26.00;92.90
14103;DHT22;7129;48.832;12.472;2022-07-25T08:02:55;26.10;92.50
14103;DHT22;7129;48.832;12.472;2022-07-25T08:07:58;26.30;92.50
14103;DHT22;7129;48.832;12.472;2022-07-25T08:13:02;26.50;91.70
14103;DHT22;7129;48.832;12.472;2022-07-25T08:18:05;26.80;92.00
14103;DHT22;7129;48.832;12.472;2022-07-25T08:23:08;27.00;92.10
14103;DHT22;7129;48.832;12.472;2022-07-25T08:28:12;27.30;91.90
14103;DHT22;7129;48.832;12.472;2022-07-25T08:33:15;27.50;91.40
14103;DHT22;7129;48.832;12.472;2022-07-25T08:38:17;27.70;91.30
14103;DHT22;7129;48.832;12.472;2022-07-25T08:43:19;27.80;90.30
14103;DHT22;7129;48.832;12.472;2022-07-25T08:48:24;28.00;90.70
14103;DHT22;7129;48.832;12.472;2022-07-25T08:53:27;28.10;90.70
14103;DHT22;7129;48.832;12.472;2022-07-25T08:58:30;28.50;90.60
14103;DHT22;7129;48.832;12.472;2022-07-25T09:03:33;28.80;89.90
14103;DHT22;7129;48.832;12.472;2022-07-25T09:08:36;29.10;90.70
14103;DHT22;7129;48.832;12.472;2022-07-25T09:13:38;29.40;90.10
14103;DHT22;7129;48.832;12.472;2022-07-25T09:18:41;29.60;89.40
14103;DHT22;7129;48.832;12.472;2022-07-25T09:23:44;29.80;88.20
14103;DHT22;7129;48.832;12.472;2022-07-25T09:28:48;29.80;86.60
14103;DHT22;7129;48.832;12.472;2022-07-25T09:33:54;29.80;87.40
14103;DHT22;7129;48.832;12.472;2022-07-25T09:39:00;29.90;86.30
14103;DHT22;7129;48.832;12.472;2022-07-25T09:44:02;29.80;87.50
14103;DHT22;7129;48.832;12.472;2022-07-25T09:49:06;30.10;87.20
14103;DHT22;7129;48.832;12.472;2022-07-25T09:54:09;30.40;88.50
14103;DHT22;7129;48.832;12.472;2022-07-25T09:59:11;30.60;84.30
14103;DHT22;7129;48.832;12.472;2022-07-25T10:04:19;30.70;85.30
14103;DHT22;7129;48.832;12.472;2022-07-25T10:09:22;30.80;82.00
14103;DHT22;7129;48.832;12.472;2022-07-25T10:14:24;30.60;83.90
14103;DHT22;7129;48.832;12.472;2022-07-25T10:19:39;30.80;84.10
14103;DHT22;7129;48.832;12.472;2022-07-25T10:24:43;30.90;84.50
14103;DHT22;7129;48.832;12.472;2022-07-25T10:29:51;31.00;83.70
14103;DHT22;7129;48.832;12.472;2022-07-25T10:34:54;31.30;85.60
14103;DHT22;7129;48.832;12.472;2022-07-25T10:39:56;31.50;83.70
14103;DHT22;7129;48.832;12.472;2022-07-25T10:45:01;31.60;80.90
14103;DHT22;7129;48.832;12.472;2022-07-25T10:50:10;31.70;80.80
14103;DHT22;7129;48.832;12.472;2022-07-25T10:55:21;31.70;81.10
14103;DHT22;7129;48.832;12.472;2022-07-25T11:00:24;31.60;81.40
14103;DHT22;7129;48.832;12.472;2022-07-25T11:05:28;31.80;80.90
14103;DHT22;7129;48.832;12.472;2022-07-25T11:10:30;31.80;81.00
14103;DHT22;7129;48.832;12.472;2022-07-25T11:15:32;32.00;82.10
14103;DHT22;7129;48.832;12.472;2022-07-25T11:20:36;32.20;81.50
14103;DHT22;7129;48.832;12.472;2022-07-25T11:25:38;32.30;80.10
14103;DHT22;7129;48.832;12.472;2022-07-25T11:30:41;32.40;78.40
14103;DHT22;7129;48.832;12.472;2022-07-25T11:35:45;32.50;78.90
14103;DHT22;7129;48.832;12.472;2022-07-25T11:40:47;32.60;77.90
14103;DHT22;7129;48.832;12.472;2022-07-25T11:45:56;32.60;79.00
14103;DHT22;7129;48.832;12.472;2022-07-25T11:51:11;32.80;78.00
14103;DHT22;7129;48.832;12.472;2022-07-25T11:56:15;32.80;81.10
14103;DHT22;7129;48.832;12.472;2022-07-25T12:01:17;33.00;80.00
14103;DHT22;7129;48.832;12.472;2022-07-25T12:06:28;33.10;79.00
14103;DHT22;7129;48.832;12.472;2022-07-25T12:11:30;33.20;77.70
14103;DHT22;7129;48.832;12.472;2022-07-25T12:16:32;33.30;77.70
14103;DHT22;7129;48.832;12.472;2022-07-25T12:21:35;33.40;77.50
14103;DHT22;7129;48.832;12.472;2022-07-25T12:26:37;33.40;75.90
14103;DHT22;7129;48.832;12.472;2022-07-25T12:31:39;33.50;75.90
14103;DHT22;7129;48.832;12.472;2022-07-25T12:36:43;33.60;76.30
14103;DHT22;7129;48.832;12.472;2022-07-25T12:41:44;33.70;76.30
14103;DHT22;7129;48.832;12.472;2022-07-25T12:46:49;33.70;73.20
14103;DHT22;7129;48.832;12.472;2022-07-25T12:51:54;33.80;71.30
14103;DHT22;7129;48.832;12.472;2022-07-25T12:56:56;33.80;68.50
14103;DHT22;7129;48.832;12.472;2022-07-25T13:02:03;33.80;69.40
14103;DHT22;7129;48.832;12.472;2022-07-25T13:07:07;33.80;69.80
14103;DHT22;7129;48.832;12.472;2022-07-25T13:12:09;33.90;71.30
14103;DHT22;7129;48.832;12.472;2022-07-25T13:17:11;34.00;69.90
14103;DHT22;7129;48.832;12.472;2022-07-25T13:28:19;34.10;66.30
14103;DHT22;7129;48.832;12.472;2022-07-25T13:38:47;34.20;66.80
14103;DHT22;7129;48.832;12.472;2022-07-25T13:44:16;34.30;63.40
14103;DHT22;7129;48.832;12.472;2022-07-25T13:49:18;34.30;66.30
14103;DHT22;7129;48.832;12.472;2022-07-25T13:54:23;34.40;62.90
14103;DHT22;7129;48.832;12.472;2022-07-25T13:59:28;34.50;61.80
14103;DHT22;7129;48.832;12.472;2022-07-25T14:04:31;34.50;62.60
14103;DHT22;7129;48.832;12.472;2022-07-25T14:09:33;34.50;62.70
14103;DHT22;7129;48.832;12.472;2022-07-25T14:14:37;34.60;63.50
14103;DHT22;7129;48.832;12.472;2022-07-25T14:19:39;34.60;64.00
14103;DHT22;7129;48.832;12.472;2022-07-25T14:24:44;34.70;64.80
14103;DHT22;7129;48.832;12.472;2022-07-25T14:29:47;34.70;65.20
14103;DHT22;7129;48.832;12.472;2022-07-25T14:34:49;34.80;63.00
14103;DHT22;7129;48.832;12.472;2022-07-25T14:40:01;34.90;62.40
14103;DHT22;7129;48.832;12.472;2022-07-25T14:45:06;34.90;62.80
14103;DHT22;7129;48.832;12.472;2022-07-25T14:50:09;34.90;64.40
14103;DHT22;7129;48.832;12.472;2022-07-25T14:55:11;34.90;63.40
14103;DHT22;7129;48.832;12.472;2022-07-25T15:00:14;35.10;61.00
14103;DHT22;7129;48.832;12.472;2022-07-25T15:05:18;35.10;61.00
14103;DHT22;7129;48.832;12.472;2022-07-25T15:10:20;35.10;59.60
14103;DHT22;7129;48.832;12.472;2022-07-25T15:15:35;35.20;59.90
14103;DHT22;7129;48.832;12.472;2022-07-25T15:20:37;35.10;58.60
14103;DHT22;7129;48.832;12.472;2022-07-25T15:25:40;35.00;60.00
14103;DHT22;7129;48.832;12.472;2022-07-25T15:30:56;35.00;61.50
14103;DHT22;7129;48.832;12.472;2022-07-25T15:36:29;35.10;59.30
14103;DHT22;7129;48.832;12.472;2022-07-25T15:47:25;35.20;58.70
14103;DHT22;7129;48.832;12.472;2022-07-25T15:52:27;35.30;57.30
14103;DHT22;7129;48.832;12.472;2022-07-25T15:57:32;35.20;57.90
14103;DHT22;7129;48.832;12.472;2022-07-25T16:02:39;35.10;58.60
14103;DHT22;7129;48.832;12.472;2022-07-25T16:07:44;35.20;56.40
14103;DHT22;7129;48.832;12.472;2022-07-25T16:12:48;35.10;56.60
14103;DHT22;7129;48.832;12.472;2022-07-25T16:24:00;35.00;58.00
14103;DHT22;7129;48.832;12.472;2022-07-25T16:29:08;35.00;57.10
14103;DHT22;7129;48.832;12.472;2022-07-25T16:34:12;35.00;58.80
14103;DHT22;7129;48.832;12.472;2022-07-25T16:39:16;35.00;58.70
14103;DHT22;7129;48.832;12.472;2022-07-25T16:44:24;35.00;57.70
14103;DHT22;7129;48.832;12.472;2022-07-25T16:49:26;34.90;56.20
14103;DHT22;7129;48.832;12.472;2022-07-25T16:54:31;34.80;56.90
14103;DHT22;7129;48.832;12.472;2022-07-25T16:59:33;34.60;56.40
14103;DHT22;7129;48.832;12.472;2022-07-25T17:04:36;34.30;58.10
14103;DHT22;7129;48.832;12.472;2022-07-25T17:09:39;34.00;59.50
14103;DHT22;7129;48.832;12.472;2022-07-25T17:14:42;33.70;60.60
14103;DHT22;7129;48.832;12.472;2022-07-25T17:19:44;33.40;62.90
14103;DHT22;7129;48.832;12.472;2022-07-25T17:24:47;33.10;64.40
14103;DHT22;7129;48.832;12.472;2022-07-25T17:29:49;32.90;66.60
14103;DHT22;7129;48.832;12.472;2022-07-25T17:34:51;32.70;66.00
14103;DHT22;7129;48.832;12.472;2022-07-25T17:39:54;32.60;66.20
14103;DHT22;7129;48.832;12.472;2022-07-25T17:44:56;32.40;65.40
14103;DHT22;7129;48.832;12.472;2022-07-25T17:50:04;32.30;67.20
14103;DHT22;7129;48.832;12.472;2022-07-25T17:55:08;32.10;66.70
14103;DHT22;7129;48.832;12.472;2022-07-25T18:00:12;31.80;68.60
14103;DHT22;7129;48.832;12.472;2022-07-25T18:05:17;31.60;69.00
14103;DHT22;7129;48.832;12.472;2022-07-25T18:10:40;31.70;64.20
14103;DHT22;7129;48.832;12.472;2022-07-25T18:15:51;31.30;69.80
14103;DHT22;7129;48.832;12.472;2022-07-25T18:26:02;30.10;77.30
14103;DHT22;7129;48.832;12.472;2022-07-25T18:31:07;29.80;78.80
14103;DHT22;7129;48.832;12.472;2022-07-25T18:36:16;29.10;82.50
14103;DHT22;7129;48.832;12.472;2022-07-25T18:41:20;28.50;86.00
14103;DHT22;7129;48.832;12.472;2022-07-25T18:46:22;28.20;89.50
14103;DHT22;7129;48.832;12.472;2022-07-25T18:51:27;27.90;92.00
14103;DHT22;7129;48.832;12.472;2022-07-25T18:56:34;27.90;90.60
14103;DHT22;7129;48.832;12.472;2022-07-25T19:02:02;28.10;87.20
14103;DHT22;7129;48.832;12.472;2022-07-25T19:07:04;28.10;87.10
14103;DHT22;7129;48.832;12.472;2022-07-25T19:12:09;27.90;88.50
14103;DHT22;7129;48.832;12.472;2022-07-25T19:17:11;27.80;90.20
14103;DHT22;7129;48.832;12.472;2022-07-25T19:22:13;27.60;90.30
14103;DHT22;7129;48.832;12.472;2022-07-25T19:27:17;27.60;90.90
14103;DHT22;7129;48.832;12.472;2022-07-25T19:32:19;28.10;86.70
14103;DHT22;7129;48.832;12.472;2022-07-25T19:37:22;28.00;90.10
14103;DHT22;7129;48.832;12.472;2022-07-25T19:42:25;27.70;91.70
14103;DHT22;7129;48.832;12.472;2022-07-25T19:54:13;27.30;92.60
14103;DHT22;7129;48.832;12.472;2022-07-25T19:59:17;27.20;92.30
14103;DHT22;7129;48.832;12.472;2022-07-25T20:04:37;27.10;92.70
14103;DHT22;7129;48.832;12.472;2022-07-25T20:09:42;27.00;92.10
14103;DHT22;7129;48.832;12.472;2022-07-25T20:14:46;26.80;92.60
14103;DHT22;7129;48.832;12.472;2022-07-25T20:20:04;26.70;93.80
14103;DHT22;7129;48.832;12.472;2022-07-25T20:30:42;26.60;93.00
14103;DHT22;7129;48.832;12.472;2022-07-25T20:35:44;26.70;93.30
14103;DHT22;7129;48.832;12.472;2022-07-25T20:40:46;26.70;93.50
14103;DHT22;7129;48.832;12.472;2022-07-25T20:45:50;26.50;94.20
14103;DHT22;7129;48.832;12.472;2022-07-25T21:06:30;26.00;95.40
14103;DHT22;7129;48.832;12.472;2022-07-25T21:22:44;26.00;96.90
14103;DHT22;7129;48.832;12.472;2022-07-25T21:27:53;25.90;97.40
14103;DHT22;7129;48.832;12.472;2022-07-25T21:32:54;25.80;97.40
14103;DHT22;7129;48.832;12.472;2022-07-25T21:38:08;25.90;97.70
14103;DHT22;7129;48.832;12.472;2022-07-25T21:43:17;25.80;97.50
14103;DHT22;7129;48.832;12.472;2022-07-25T21:48:26;25.80;97.50
14103;DHT22;7129;48.832;12.472;2022-07-25T21:54:03;25.80;97.20
14103;DHT22;7129;48.832;12.472;2022-07-25T21:59:11;25.80;96.90
14103;DHT22;7129;48.832;12.472;2022-07-25T22:04:13;25.90;96.80
14103;DHT22;7129;48.832;12.472;2022-07-25T22:21:13;25.70;97.80
14103;DHT22;7129;48.832;12.472;2022-07-25T22:26:18;25.70;97.70
14103;DHT22;7129;48.832;12.472;2022-07-25T22:31:20;25.70;98.10
14103;DHT22;7129;48.832;12.472;2022-07-25T22:36:23;25.60;98.90
14103;DHT22;7129;48.832;12.472;2022-07-25T22:41:25;25.40;99.40
14103;DHT22;7129;48.832;12.472;2022-07-25T22:46:27;25.30;99.60
14103;DHT22;7129;48.832;12.472;2022-07-25T22:51:31;25.20;99.90
14103;DHT22;7129;48.832;12.472;2022-07-25T22:56:33;25.10;99.90
14103;DHT22;7129;48.832;12.472;2022-07-25T23:01:38;25.00;99.90
14103;DHT22;7129;48.832;12.472;2022-07-25T23:06:41;25.00;99.90
14103;DHT22;7129;48.832;12.472;2022-07-25T23:11:43;24.90;99.90
14103;DHT22;7129;48.832;12.472;2022-07-25T23:16:48;24.80;99.90
14103;DHT22;7129;48.832;12.472;2022-07-25T23:22:11;24.80;99.90
14103;DHT22;7129;48.832;12.472;2022-07-25T23:27:13;24.70;99.90
14103;DHT22;7129;48.832;12.472;2022-07-25T23:32:17;24.70;99.90
14103;DHT22;7129;48.832;12.472;2022-07-25T23:37:20;24.60;99.90
14103;DHT22;7129;48.832;12.472;2022-07-25T23:42:22;24.60;99.90
14103;DHT22;7129;48.832;12.472;2022-07-25T23:47:24;24.50;99.90
14103;DHT22;7129;48.832;12.472;2022-07-25T23:52:27;24.40;99.90
14103;DHT22;7129;48.832;12.472;2022-07-25T23:57:29;24.30;99.90
